Time;durP1;ratioP1;P1;durP2;ratioP2;P2;SDS_P1;SDS_P2;PMS_P1;PMS_P2;Temp;Humidity;BMP_temperature;BMP_pressure;BME280_temperature;BME280_humidity;BME280_pressure;Samples;Min_cycle;Max_cycle;Signal;HPM_P1;HPM_P2
2024/03/23 00:00:29;;;;;;;11.87;5.60;;;10.30;99.90;;;;;;5035155;28;20540;-65
2024/03/23 00:02:55;;;;;;;11.57;5.10;;;10.30;99.90;;;;;;5036775;28;20443;-66
2024/03/23 00:05:22;;;;;;;13.53;6.33;;;10.30;99.90;;;;;;5036411;28;21081;-66
2024/03/23 00:07:50;;;;;;;13.73;4.80;;;10.20;99.90;;;;;;5035059;28;20477;-65
2024/03/23 00:10:16;;;;;;;14.17;6.00;;;10.20;99.90;;;;;;5035439;28;20532;-65
2024/03/23 00:12:43;;;;;;;12.40;5.13;;;10.20;99.90;;;;;;5034816;28;20448;-66
2024/03/23 00:15:10;;;;;;;11.87;6.20;;;10.20;99.90;;;;;;5035568;28;20815;-66
2024/03/23 00:17:36;;;;;;;13.57;5.37;;;10.10;99.90;;;;;;5036914;28;20420;-66
2024/03/23 00:20:03;;;;;;;12.27;5.83;;;10.10;99.90;;;;;;5035863;28;20421;-66
2024/03/23 00:22:30;;;;;;;14.03;5.20;;;10.10;99.90;;;;;;5035646;28;20494;-65
2024/03/23 00:24:57;;;;;;;11.10;4.60;;;10.20;99.90;;;;;;5036825;28;21098;-66
2024/03/23 00:27:24;;;;;;;14.87;4.80;;;10.10;99.90;;;;;;5035684;28;21187;-66
2024/03/23 00:29:50;;;;;;;7.93;4.73;;;10.10;99.90;;;;;;5036261;28;20421;-66
2024/03/23 00:32:17;;;;;;;10.83;4.70;;;10.10;99.90;;;;;;5035636;28;20425;-66
2024/03/23 00:34:43;;;;;;;9.20;4.90;;;10.10;99.90;;;;;;5036394;28;20851;-66
2024/03/23 00:37:10;;;;;;;12.73;5.53;;;10.10;99.90;;;;;;5035134;28;20883;-66
2024/03/23 00:39:37;;;;;;;9.60;4.30;;;10.10;99.90;;;;;;5035010;28;20434;-66
2024/03/23 00:42:03;;;;;;;8.10;3.97;;;10.00;99.90;;;;;;5035788;28;20844;-66
2024/03/23 00:44:30;;;;;;;10.40;4.10;;;10.00;99.90;;;;;;5035637;28;20431;-66
2024/03/23 00:46:56;;;;;;;10.70;4.27;;;10.00;99.90;;;;;;5035876;28;20450;-66
2024/03/23 00:49:23;;;;;;;10.50;4.03;;;10.00;99.90;;;;;;5035258;28;20472;-65
2024/03/23 00:51:50;;;;;;;16.37;4.40;;;10.00;99.90;;;;;;5035260;28;20527;-66
2024/03/23 00:54:15;;;;;;;12.90;4.20;;;10.00;99.90;;;;;;5033815;28;20425;-66
2024/03/23 00:56:41;;;;;;;11.10;4.40;;;9.90;99.90;;;;;;5035934;28;20495;-66
2024/03/23 00:59:07;;;;;;;14.60;4.80;;;9.90;99.90;;;;;;5034895;28;20258;-65
2024/03/23 01:01:32;;;;;;;8.40;3.57;;;9.90;99.90;;;;;;5035489;28;20181;-66
2024/03/23 01:03:59;;;;;;;6.97;4.30;;;9.90;99.90;;;;;;5036246;28;20217;-66
2024/03/23 01:06:24;;;;;;;6.10;3.60;;;9.90;99.90;;;;;;5035163;28;20559;-66
2024/03/23 01:08:50;;;;;;;8.23;3.53;;;9.90;99.90;;;;;;5035151;28;20469;-66
2024/03/23 01:11:16;;;;;;;5.87;4.00;;;9.90;99.90;;;;;;5034350;28;20182;-66
2024/03/23 01:13:41;;;;;;;9.40;3.70;;;9.90;99.90;;;;;;5033985;28;20182;-66
2024/03/23 01:16:07;;;;;;;7.03;4.17;;;9.80;99.90;;;;;;5034168;28;20182;-65
2024/03/23 01:18:33;;;;;;;6.57;3.00;;;9.80;99.90;;;;;;5034798;28;20182;-66
2024/03/23 01:20:58;;;;;;;9.67;3.17;;;9.80;99.90;;;;;;5034898;28;20211;-66
2024/03/23 01:23:24;;;;;;;7.70;3.40;;;9.80;99.90;;;;;;5034947;28;20190;-66
2024/03/23 01:25:53;;;;;;;7.40;3.20;;;9.80;99.90;;;;;;5035156;28;20186;-66
2024/03/23 01:28:21;;;;;;;11.63;3.27;;;9.80;99.90;;;;;;5033664;28;20205;-66
2024/03/23 01:30:47;;;;;;;7.80;3.77;;;9.70;99.90;;;;;;5067294;28;20515;-65
2024/03/23 01:33:12;;;;;;;10.30;4.00;;;9.80;99.90;;;;;;5032588;28;20520;-66
2024/03/23 01:35:38;;;;;;;8.70;3.53;;;9.70;99.90;;;;;;5034857;28;20524;-66
2024/03/23 01:38:04;;;;;;;12.77;4.50;;;9.70;99.90;;;;;;5034547;28;20186;-66
2024/03/23 01:40:32;;;;;;;9.00;4.00;;;9.60;99.90;;;;;;5034920;28;20424;-65
2024/03/23 01:43:05;;;;;;;8.03;3.17;;;9.60;99.90;;;;;;5034499;28;20189;-66
2024/03/23 01:45:34;;;;;;;7.87;3.30;;;9.60;99.90;;;;;;5034437;28;20486;-66
2024/03/23 01:48:00;;;;;;;8.70;3.57;;;9.60;99.90;;;;;;5034167;28;20526;-66
2024/03/23 01:50:27;;;;;;;7.27;3.17;;;9.50;99.90;;;;;;5034548;28;20437;-66
2024/03/23 01:52:53;;;;;;;7.90;2.77;;;9.50;99.90;;;;;;5035340;28;20429;-65
2024/03/23 01:55:19;;;;;;;9.63;4.03;;;9.60;99.90;;;;;;5034044;28;20425;-65
2024/03/23 01:57:46;;;;;;;7.67;3.00;;;9.50;99.90;;;;;;5034723;28;20432;-66
2024/03/23 02:00:12;;;;;;;8.20;3.37;;;9.50;99.90;;;;;;5033700;28;20527;-66
2024/03/23 02:02:44;;;;;;;10.70;3.43;;;9.50;99.90;;;;;;5034460;28;20926;-65
2024/03/23 02:05:11;;;;;;;8.80;3.40;;;9.50;99.90;;;;;;5033689;28;20424;-65
2024/03/23 02:07:42;;;;;;;8.63;3.40;;;9.50;99.90;;;;;;5034206;28;20447;-65
2024/03/23 02:10:10;;;;;;;5.77;2.77;;;9.40;99.90;;;;;;5033791;28;20432;-66
2024/03/23 02:12:36;;;;;;;10.53;3.47;;;9.40;99.90;;;;;;5034927;28;21135;-65
2024/03/23 02:15:02;;;;;;;8.60;3.03;;;9.40;99.90;;;;;;5034218;28;21184;-66
2024/03/23 02:17:31;;;;;;;5.80;3.10;;;9.40;99.90;;;;;;5034736;28;20429;-65
2024/03/23 02:19:56;;;;;;;14.00;5.20;;;9.30;99.90;;;;;;5033365;28;20507;-66
2024/03/23 02:22:22;;;;;;;5.23;2.40;;;9.30;99.90;;;;;;5034265;28;20569;-66
2024/03/23 02:24:48;;;;;;;4.50;2.30;;;9.30;99.90;;;;;;5034583;28;20644;-65
2024/03/23 02:27:13;;;;;;;5.50;2.53;;;9.30;99.90;;;;;;5033999;28;20189;-66
2024/03/23 02:29:39;;;;;;;5.13;2.80;;;9.30;99.90;;;;;;5034648;28;20264;-65
2024/03/23 02:32:05;;;;;;;8.13;2.80;;;9.30;99.90;;;;;;5033865;28;20217;-65
2024/03/23 02:34:31;;;;;;;8.40;3.07;;;9.20;99.90;;;;;;5034657;28;20177;-65
2024/03/23 02:36:57;;;;;;;4.53;2.73;;;9.20;99.90;;;;;;5034438;28;20436;-66
2024/03/23 02:39:23;;;;;;;5.03;3.10;;;9.20;99.90;;;;;;5036175;28;20193;-65
2024/03/23 02:41:48;;;;;;;7.07;2.83;;;9.10;99.90;;;;;;5037494;28;20559;-66
2024/03/23 02:44:14;;;;;;;6.33;2.77;;;9.10;99.90;;;;;;5037057;28;20543;-65
2024/03/23 02:46:40;;;;;;;7.90;3.17;;;9.10;99.90;;;;;;5037969;28;20186;-65
2024/03/23 02:49:06;;;;;;;8.47;2.90;;;9.10;99.90;;;;;;5037040;28;20198;-66
2024/03/23 02:51:32;;;;;;;5.60;2.80;;;9.10;99.90;;;;;;5038352;28;20243;-65
2024/03/23 02:53:57;;;;;;;9.13;2.67;;;9.10;99.90;;;;;;5037807;28;21276;-66
2024/03/23 02:56:23;;;;;;;3.47;2.27;;;9.10;99.90;;;;;;5070307;28;20189;-65
2024/03/23 02:58:49;;;;;;;4.63;2.20;;;9.00;99.90;;;;;;5038199;28;20186;-65
2024/03/23 03:01:14;;;;;;;5.80;2.17;;;9.00;99.90;;;;;;5037482;28;20955;-65
2024/03/23 03:03:40;;;;;;;4.23;2.57;;;9.00;99.90;;;;;;5037842;28;20543;-64
2024/03/23 03:06:06;;;;;;;5.27;2.47;;;9.00;99.90;;;;;;5037013;28;20187;-66
2024/03/23 03:08:31;;;;;;;6.40;2.57;;;9.00;99.90;;;;;;5037715;28;20217;-66
2024/03/23 03:10:57;;;;;;;6.60;2.60;;;9.00;99.90;;;;;;5037184;28;20247;-66
2024/03/23 03:13:23;;;;;;;5.63;2.60;;;9.00;99.90;;;;;;5037892;28;20664;-66
2024/03/23 03:15:49;;;;;;;6.53;2.60;;;9.00;99.90;;;;;;5037577;28;20186;-65
2024/03/23 03:18:14;;;;;;;9.50;2.53;;;9.00;99.90;;;;;;5036866;28;20260;-65
2024/03/23 03:20:40;;;;;;;8.47;2.80;;;8.90;99.90;;;;;;5037140;28;20179;-66
2024/03/23 03:23:06;;;;;;;6.00;2.50;;;8.90;99.90;;;;;;5037034;28;20198;-66
2024/03/23 03:25:33;;;;;;;8.40;3.17;;;8.90;99.90;;;;;;5037600;28;20432;-66
2024/03/23 03:27:59;;;;;;;6.37;2.90;;;8.90;99.90;;;;;;5036482;28;21027;-66
2024/03/23 03:30:24;;;;;;;3.20;2.43;;;8.90;99.90;;;;;;5037387;28;20461;-65
2024/03/23 03:32:55;;;;;;;6.93;2.97;;;8.80;99.90;;;;;;5037249;28;20478;-65
2024/03/23 03:35:21;;;;;;;5.33;3.03;;;8.90;99.90;;;;;;5037426;28;20280;-66
2024/03/23 03:37:46;;;;;;;6.70;2.50;;;8.80;99.90;;;;;;5037144;28;21139;-66
2024/03/23 03:40:14;;;;;;;3.73;2.53;;;8.80;99.90;;;;;;5036191;28;20472;-65
2024/03/23 03:42:40;;;;;;;6.63;2.23;;;8.80;99.90;;;;;;5037081;28;20182;-65
2024/03/23 03:45:07;;;;;;;6.03;2.60;;;8.80;99.90;;;;;;5036747;28;20421;-65
2024/03/23 03:47:32;;;;;;;4.20;2.63;;;8.80;99.90;;;;;;5037008;28;20535;-66
2024/03/23 03:49:58;;;;;;;11.00;3.10;;;8.80;99.90;;;;;;5036022;28;20884;-66
2024/03/23 03:52:23;;;;;;;4.33;2.40;;;8.80;99.90;;;;;;5037373;28;20181;-66
2024/03/23 03:54:49;;;;;;;3.90;2.30;;;8.80;99.90;;;;;;5036270;28;20177;-66
2024/03/23 03:57:15;;;;;;;4.73;2.50;;;8.70;99.90;;;;;;5036525;28;20239;-66
2024/03/23 03:59:40;;;;;;;5.80;2.53;;;8.70;99.90;;;;;;5036650;28;20715;-65
2024/03/23 04:02:06;;;;;;;6.90;2.27;;;8.70;99.90;;;;;;5036104;28;20235;-66
2024/03/23 04:04:32;;;;;;;4.83;2.77;;;8.70;99.90;;;;;;5037079;28;20186;-65
2024/03/23 04:07:01;;;;;;;4.77;2.77;;;8.70;99.90;;;;;;5036032;28;20248;-65
2024/03/23 04:09:27;;;;;;;5.83;2.40;;;8.60;99.90;;;;;;5036393;28;20263;-66
2024/03/23 04:11:53;;;;;;;4.20;2.10;;;8.60;99.90;;;;;;5034231;28;20421;-65
2024/03/23 04:14:18;;;;;;;5.57;2.33;;;8.50;99.90;;;;;;5036746;28;20452;-65
2024/03/23 04:16:44;;;;;;;3.57;2.07;;;8.50;99.90;;;;;;5036352;28;20235;-66
2024/03/23 04:19:10;;;;;;;10.50;3.00;;;8.50;99.90;;;;;;5035883;28;20192;-65
2024/03/23 04:21:37;;;;;;;5.13;2.50;;;8.50;99.90;;;;;;5035398;28;20189;-66
2024/03/23 04:24:03;;;;;;;2.90;1.70;;;8.50;99.90;;;;;;5036112;28;20942;-66
2024/03/23 04:26:29;;;;;;;3.07;1.60;;;8.50;99.90;;;;;;5036653;28;20440;-66
2024/03/23 04:28:54;;;;;;;5.13;2.03;;;8.50;99.90;;;;;;5035528;28;20460;-67
2024/03/23 04:31:20;;;;;;;7.37;2.10;;;8.50;99.90;;;;;;5036268;28;20185;-66
2024/03/23 04:33:46;;;;;;;7.23;1.70;;;8.60;99.90;;;;;;5036057;28;20666;-67
2024/03/23 04:36:11;;;;;;;5.40;2.20;;;8.60;99.90;;;;;;5035534;28;20620;-66
2024/03/23 04:38:37;;;;;;;7.40;2.87;;;8.60;99.90;;;;;;5035929;28;20243;-66
2024/03/23 04:41:03;;;;;;;3.67;2.00;;;8.50;99.90;;;;;;5041406;28;20251;-65
2024/03/23 04:43:29;;;;;;;6.07;2.90;;;8.50;99.90;;;;;;5036152;28;20205;-66
2024/03/23 04:45:55;;;;;;;4.67;3.17;;;8.50;99.90;;;;;;5035684;28;20190;-67
2024/03/23 04:48:24;;;;;;;9.37;3.30;;;8.50;99.90;;;;;;5035933;28;20812;-66
2024/03/23 04:50:54;;;;;;;6.90;2.90;;;8.50;99.90;;;;;;5035644;28;20228;-66
2024/03/23 04:53:20;;;;;;;4.60;2.90;;;8.50;99.90;;;;;;5035648;28;20926;-67
2024/03/23 04:55:46;;;;;;;6.47;2.83;;;8.50;99.90;;;;;;5035199;28;20426;-66
2024/03/23 04:58:11;;;;;;;9.50;3.20;;;8.50;99.90;;;;;;5034867;28;20517;-66
2024/03/23 05:00:37;;;;;;;4.63;2.80;;;8.50;99.90;;;;;;5034902;28;20567;-65
2024/03/23 05:03:04;;;;;;;10.83;3.20;;;8.50;99.90;;;;;;5033497;28;20369;-66
2024/03/23 05:05:29;;;;;;;5.00;2.73;;;8.40;99.90;;;;;;5035336;28;20193;-66
2024/03/23 05:07:55;;;;;;;7.20;2.63;;;8.40;99.90;;;;;;5033476;28;20443;-66
2024/03/23 05:10:21;;;;;;;9.10;3.80;;;8.40;99.90;;;;;;5035631;28;20190;-66
2024/03/23 05:12:46;;;;;;;7.10;2.80;;;8.50;99.90;;;;;;5032014;28;20211;-66
2024/03/23 05:15:12;;;;;;;8.13;2.97;;;8.40;99.90;;;;;;5034361;28;20236;-66
2024/03/23 05:17:38;;;;;;;6.90;2.60;;;8.40;99.90;;;;;;5033225;28;20185;-66
2024/03/23 05:20:04;;;;;;;7.37;3.30;;;8.40;99.90;;;;;;5034129;28;20186;-65
2024/03/23 05:22:30;;;;;;;6.00;3.27;;;8.40;99.90;;;;;;5035286;28;20177;-65
2024/03/23 05:24:56;;;;;;;8.97;3.27;;;8.40;99.90;;;;;;5033649;28;20762;-66
2024/03/23 05:27:22;;;;;;;8.80;3.83;;;8.40;99.90;;;;;;5035871;28;20447;-66
2024/03/23 05:29:48;;;;;;;10.87;3.40;;;8.40;99.90;;;;;;5033374;28;20279;-66
2024/03/23 05:32:14;;;;;;;7.63;4.00;;;8.30;99.90;;;;;;5033951;28;20440;-66
2024/03/23 05:34:40;;;;;;;14.23;4.43;;;8.30;99.90;;;;;;5034171;28;20173;-66
2024/03/23 05:37:05;;;;;;;7.67;3.43;;;8.30;99.90;;;;;;5033542;28;20818;-67
2024/03/23 05:39:31;;;;;;;9.50;4.40;;;8.30;99.90;;;;;;5034354;28;20198;-66
2024/03/23 05:41:57;;;;;;;6.37;4.13;;;8.20;99.90;;;;;;5033223;28;20178;-67
2024/03/23 05:44:22;;;;;;;9.67;5.50;;;8.20;99.90;;;;;;5033643;28;20536;-66
2024/03/23 05:46:48;;;;;;;8.07;4.90;;;8.20;99.90;;;;;;5033208;28;20213;-66
2024/03/23 05:49:16;;;;;;;7.23;4.53;;;8.20;99.90;;;;;;5031507;28;20293;-66
2024/03/23 05:51:41;;;;;;;8.00;4.77;;;8.20;99.90;;;;;;5034098;28;20181;-66
2024/03/23 05:54:07;;;;;;;9.90;5.47;;;8.20;99.90;;;;;;5034288;28;21024;-66
2024/03/23 05:56:33;;;;;;;8.80;5.40;;;8.20;99.90;;;;;;5034236;28;21007;-66
2024/03/23 05:58:58;;;;;;;9.97;5.60;;;8.20;99.90;;;;;;5033302;28;20776;-67
2024/03/23 06:01:24;;;;;;;8.33;4.83;;;8.10;99.90;;;;;;5033053;28;20170;-68
2024/03/23 06:03:50;;;;;;;9.60;5.43;;;8.20;99.90;;;;;;5033719;28;20682;-67
2024/03/23 06:06:16;;;;;;;9.27;5.50;;;8.10;99.90;;;;;;5034269;28;20316;-67
2024/03/23 06:08:42;;;;;;;11.43;6.27;;;8.10;99.90;;;;;;5034040;28;20583;-67
2024/03/23 06:11:07;;;;;;;12.90;7.93;;;8.00;99.90;;;;;;5066192;28;20192;-66
2024/03/23 06:13:34;;;;;;;9.00;5.77;;;8.10;99.90;;;;;;5036648;28;20178;-66
2024/03/23 06:16:01;;;;;;;10.20;5.70;;;8.10;99.90;;;;;;5037836;28;20181;-67
2024/03/23 06:18:27;;;;;;;11.37;6.70;;;8.10;99.90;;;;;;5038155;28;20519;-67
2024/03/23 06:20:53;;;;;;;10.13;6.70;;;8.20;99.90;;;;;;5037504;28;20433;-66
2024/03/23 06:23:20;;;;;;;11.90;7.67;;;8.20;99.90;;;;;;5038320;28;20976;-66
2024/03/23 06:25:46;;;;;;;11.03;7.43;;;8.20;99.90;;;;;;5037366;28;20505;-66
2024/03/23 06:28:12;;;;;;;13.00;7.30;;;8.30;99.90;;;;;;5038093;28;20531;-66
2024/03/23 06:30:38;;;;;;;14.97;8.87;;;8.30;99.90;;;;;;5038258;28;20981;-67
2024/03/23 06:33:05;;;;;;;15.83;9.47;;;8.30;99.90;;;;;;5037586;28;20300;-67
2024/03/23 06:35:31;;;;;;;11.80;9.13;;;8.30;99.90;;;;;;5038884;28;20201;-66
2024/03/23 06:37:58;;;;;;;14.53;9.27;;;8.40;99.90;;;;;;5036759;28;20428;-67
2024/03/23 06:40:24;;;;;;;14.10;10.30;;;8.30;99.90;;;;;;5038090;28;20648;-67
2024/03/23 06:42:49;;;;;;;14.70;10.60;;;8.30;99.90;;;;;;5037158;28;20878;-66
2024/03/23 06:45:16;;;;;;;15.57;10.80;;;8.30;99.90;;;;;;5037956;28;20574;-66
2024/03/23 06:47:42;;;;;;;14.87;10.83;;;8.40;99.90;;;;;;5037700;28;20182;-67
2024/03/23 06:50:07;;;;;;;18.03;12.00;;;8.30;99.90;;;;;;5038225;28;20983;-67
2024/03/23 06:52:33;;;;;;;14.70;11.67;;;8.40;99.90;;;;;;5039722;28;20194;-67
2024/03/23 06:54:59;;;;;;;16.80;11.63;;;8.40;99.90;;;;;;5038037;28;20181;-67
2024/03/23 06:57:24;;;;;;;17.63;12.10;;;8.40;99.90;;;;;;5038080;28;20354;-67
2024/03/23 06:59:50;;;;;;;16.00;12.40;;;8.40;99.90;;;;;;5037178;28;20194;-67
2024/03/23 07:02:16;;;;;;;17.03;12.10;;;8.40;99.90;;;;;;5037603;28;20249;-66
2024/03/23 07:04:42;;;;;;;14.13;11.67;;;8.40;99.90;;;;;;5037293;28;20217;-66
2024/03/23 07:07:07;;;;;;;22.13;11.47;;;8.50;99.90;;;;;;5036810;28;21133;-66
2024/03/23 07:09:33;;;;;;;19.17;13.43;;;8.50;99.90;;;;;;5036984;28;21124;-66
2024/03/23 07:11:59;;;;;;;17.27;11.40;;;8.60;99.90;;;;;;5036693;28;20294;-67
2024/03/23 07:14:25;;;;;;;16.27;11.57;;;8.60;99.90;;;;;;5036478;28;20183;-66
2024/03/23 07:16:51;;;;;;;20.30;13.13;;;8.60;99.90;;;;;;5036736;28;20462;-66
2024/03/23 07:19:17;;;;;;;16.83;12.73;;;8.70;99.90;;;;;;5037556;28;20190;-66
2024/03/23 07:21:44;;;;;;;18.43;13.60;;;8.80;99.90;;;;;;5034792;28;20425;-67
2024/03/23 07:24:10;;;;;;;21.97;14.07;;;8.80;99.90;;;;;;5037086;28;20446;-66
2024/03/23 07:26:37;;;;;;;18.73;12.63;;;8.90;99.90;;;;;;5036402;28;20431;-67
2024/03/23 07:29:03;;;;;;;22.20;13.73;;;9.00;99.90;;;;;;5037106;28;21246;-67
2024/03/23 07:31:29;;;;;;;18.77;12.77;;;9.10;99.90;;;;;;5037290;28;20413;-66
2024/03/23 07:33:54;;;;;;;14.43;12.17;;;9.10;99.90;;;;;;5036790;28;20539;-66
2024/03/23 07:36:20;;;;;;;18.57;13.87;;;9.20;99.90;;;;;;5037975;28;20273;-66
2024/03/23 07:38:46;;;;;;;20.50;14.17;;;9.20;99.90;;;;;;5036330;28;20193;-67
2024/03/23 07:41:18;;;;;;;21.73;13.57;;;9.30;99.90;;;;;;5037433;28;20190;-66
2024/03/23 07:43:45;;;;;;;22.03;15.63;;;9.30;99.90;;;;;;5037405;28;20244;-66
2024/03/23 07:46:12;;;;;;;25.30;14.80;;;9.40;99.90;;;;;;5037264;28;20428;-65
2024/03/23 07:48:38;;;;;;;22.17;14.20;;;9.50;99.90;;;;;;5036203;28;20506;-67
2024/03/23 07:51:25;;;;;;;20.40;13.37;;;9.50;99.90;;;;;;5036719;28;20436;-66
2024/03/23 07:53:52;;;;;;;21.73;13.60;;;9.60;99.90;;;;;;5036421;28;20432;-66
2024/03/23 07:56:18;;;;;;;15.53;11.73;;;9.70;99.90;;;;;;5037028;28;20522;-66
2024/03/23 07:58:45;;;;;;;19.57;12.73;;;9.70;99.90;;;;;;5036015;28;20433;-66
2024/03/23 08:01:11;;;;;;;15.10;11.30;;;9.80;99.90;;;;;;5036746;28;20481;-66
2024/03/23 08:03:38;;;;;;;18.63;11.57;;;9.80;99.90;;;;;;5035360;28;20423;-67
2024/03/23 08:06:13;;;;;;;14.83;10.40;;;9.90;99.90;;;;;;5036291;28;20456;-66
2024/03/23 08:08:40;;;;;;;12.10;9.63;;;10.10;99.90;;;;;;5036495;28;20470;-67
2024/03/23 08:11:06;;;;;;;16.57;10.47;;;10.10;99.90;;;;;;5035285;28;20452;-66
2024/03/23 08:13:33;;;;;;;17.80;11.30;;;10.10;99.90;;;;;;5036846;28;20439;-67
2024/03/23 08:16:00;;;;;;;15.40;9.50;;;10.10;99.90;;;;;;5036400;28;20428;-66
2024/03/23 08:18:26;;;;;;;18.33;9.73;;;10.20;99.90;;;;;;5036931;28;20774;-67
2024/03/23 08:21:05;;;;;;;14.27;9.63;;;10.20;99.90;;;;;;5036451;28;20432;-67
2024/03/23 08:23:37;;;;;;;16.10;10.00;;;10.30;99.90;;;;;;5036933;28;20511;-67
2024/03/23 08:26:11;;;;;;;13.90;8.83;;;10.30;99.90;;;;;;5036389;28;20437;-67
2024/03/23 08:28:37;;;;;;;15.87;10.20;;;10.30;99.90;;;;;;5035509;28;21176;-67
2024/03/23 08:31:11;;;;;;;15.00;8.53;;;10.40;99.90;;;;;;5036094;28;20425;-67
2024/03/23 08:33:38;;;;;;;15.43;8.03;;;10.40;99.90;;;;;;5036071;28;21017;-67
2024/03/23 08:36:08;;;;;;;11.03;8.20;;;10.40;99.90;;;;;;5035493;28;20491;-67
2024/03/23 08:38:34;;;;;;;15.80;8.40;;;10.40;99.90;;;;;;5035497;28;20440;-67
2024/03/23 08:41:08;;;;;;;10.83;7.50;;;10.50;99.90;;;;;;5036586;28;20428;-67
2024/03/23 08:43:41;;;;;;;13.70;7.27;;;10.50;99.90;;;;;;5036369;28;21012;-67
2024/03/23 08:46:15;;;;;;;9.37;6.50;;;10.60;99.90;;;;;;5041336;28;20421;-67
2024/03/23 08:48:45;;;;;;;9.93;7.07;;;10.50;99.90;;;;;;5035643;28;20467;-66
2024/03/23 08:51:13;;;;;;;12.30;7.47;;;10.50;99.90;;;;;;5036317;28;20962;-66
2024/03/23 08:53:40;;;;;;;12.03;6.37;;;10.40;99.90;;;;;;5067850;28;20457;-66
2024/03/23 08:56:07;;;;;;;9.20;6.00;;;10.40;99.90;;;;;;5036294;28;21116;-66
2024/03/23 08:58:34;;;;;;;11.37;6.50;;;10.30;99.90;;;;;;5035799;28;20881;-67
2024/03/23 09:01:07;;;;;;;9.77;5.83;;;10.20;99.90;;;;;;5035757;28;20780;-62
2024/03/23 09:03:34;;;;;;;18.63;7.20;;;10.30;99.90;;;;;;5035692;28;20461;-59
2024/03/23 09:06:00;;;;;;;11.63;6.23;;;10.30;99.90;;;;;;5035965;28;20424;-62
2024/03/23 09:08:26;;;;;;;511.00;55.70;;;10.20;99.90;;;;;;5035951;28;20476;-61
2024/03/23 09:10:52;;;;;;;40.83;11.20;;;10.10;99.90;;;;;;5035764;28;20435;-60
2024/03/23 09:13:18;;;;;;;13.50;6.37;;;10.10;99.90;;;;;;5036419;28;20461;-61
2024/03/23 09:15:49;;;;;;;8.13;5.00;;;10.00;99.90;;;;;;5033735;28;20458;-62
2024/03/23 09:18:15;;;;;;;9.50;5.60;;;10.00;99.90;;;;;;5036145;28;20487;-61
2024/03/23 09:20:41;;;;;;;7.80;4.67;;;9.90;99.90;;;;;;5035668;28;20500;-61
2024/03/23 09:23:07;;;;;;;6.13;4.50;;;9.50;99.90;;;;;;5036245;28;20544;-62
2024/03/23 09:25:39;;;;;;;10.73;4.67;;;9.30;99.90;;;;;;5035658;28;20432;-62
2024/03/23 09:28:06;;;;;;;8.30;3.43;;;8.90;99.90;;;;;;5035401;28;20197;-62
2024/03/23 09:30:33;;;;;;;8.67;4.10;;;8.80;99.90;;;;;;5035557;28;20428;-62
2024/03/23 09:32:59;;;;;;;6.30;2.50;;;8.50;99.90;;;;;;5035689;28;20431;-62
2024/03/23 09:35:25;;;;;;;4.27;2.33;;;8.40;99.90;;;;;;5036046;28;20935;-62
2024/03/23 09:37:50;;;;;;;11.73;2.37;;;8.30;99.90;;;;;;5035097;28;20196;-62
2024/03/23 09:40:16;;;;;;;45.10;14.23;;;8.10;99.90;;;;;;5035712;28;20193;-62
2024/03/23 09:42:47;;;;;;;9.73;3.27;;;8.20;99.90;;;;;;5035590;28;20276;-62
2024/03/23 09:45:26;;;;;;;5.17;3.20;;;8.20;99.90;;;;;;5035575;28;20267;-62
2024/03/23 09:47:52;;;;;;;14.63;4.60;;;8.30;99.90;;;;;;5035147;28;20427;-61
2024/03/23 09:50:18;;;;;;;4.80;3.20;;;8.40;99.90;;;;;;5035438;28;20512;-62
2024/03/23 09:52:46;;;;;;;11.57;4.70;;;8.70;99.90;;;;;;5033689;28;20527;-61
2024/03/23 09:55:12;;;;;;;6.43;5.07;;;9.00;99.90;;;;;;5035234;28;20420;-62
2024/03/23 09:57:38;;;;;;;9.17;5.10;;;9.20;99.90;;;;;;5034700;28;20425;-62
2024/03/23 10:00:04;;;;;;;14.87;6.43;;;9.40;99.90;;;;;;5035868;28;20446;-62
2024/03/23 10:02:30;;;;;;;6.57;5.10;;;9.60;99.90;;;;;;5034870;28;20185;-62
2024/03/23 10:04:57;;;;;;;11.80;5.40;;;9.80;99.90;;;;;;5036096;28;20915;-62
2024/03/23 10:07:23;;;;;;;7.10;4.60;;;10.00;99.90;;;;;;5035463;28;20455;-62
2024/03/23 10:09:52;;;;;;;9.73;5.27;;;10.00;99.90;;;;;;5034499;28;20925;-62
2024/03/23 10:12:19;;;;;;;10.97;5.53;;;10.20;99.90;;;;;;5034220;28;20447;-62
2024/03/23 10:14:46;;;;;;;7.73;6.40;;;10.20;99.90;;;;;;5032624;28;20993;-62
2024/03/23 10:17:14;;;;;;;9.20;5.90;;;10.50;99.90;;;;;;5035199;28;20462;-62
2024/03/23 10:19:44;;;;;;;6.93;4.67;;;10.70;99.90;;;;;;5034205;28;20451;-62
2024/03/23 10:22:13;;;;;;;7.07;5.60;;;10.90;99.90;;;;;;5035278;28;20507;-62
2024/03/23 10:24:38;;;;;;;7.07;4.73;;;11.10;99.90;;;;;;5034840;28;20791;-61
2024/03/23 10:27:04;;;;;;;6.30;4.10;;;11.20;99.90;;;;;;5034575;28;21243;-62
2024/03/23 10:29:30;;;;;;;5.97;4.70;;;11.20;99.90;;;;;;5034556;28;20217;-61
2024/03/23 10:32:08;;;;;;;5.20;3.60;;;11.40;99.90;;;;;;5034949;28;20674;-61
2024/03/23 10:34:35;;;;;;;4.13;2.90;;;11.50;99.90;;;;;;5034728;28;20659;-61
2024/03/23 10:37:03;;;;;;;6.10;2.93;;;11.30;99.90;;;;;;5034363;28;20486;-62
2024/03/23 10:39:37;;;;;;;5.13;2.67;;;11.30;99.90;;;;;;5034034;28;20448;-61
2024/03/23 10:42:10;;;;;;;4.23;2.33;;;11.00;99.90;;;;;;5035192;28;20784;-62
2024/03/23 10:44:36;;;;;;;3.50;2.13;;;11.10;99.90;;;;;;5035738;28;20489;-62
2024/03/23 10:47:03;;;;;;;3.80;2.50;;;11.10;99.90;;;;;;5040522;28;20581;-62
2024/03/23 10:49:30;;;;;;;5.10;2.60;;;11.30;99.90;;;;;;5034526;28;20495;-62
2024/03/23 10:52:00;;;;;;;3.80;2.27;;;11.50;99.90;;;;;;5033996;28;20443;-62
2024/03/23 10:54:27;;;;;;;8.93;2.80;;;11.70;99.90;;;;;;5034580;28;20498;-61
2024/03/23 10:57:08;;;;;;;3.73;2.30;;;11.80;99.90;;;;;;5035507;28;20930;-62
2024/03/23 10:59:36;;;;;;;4.13;2.43;;;11.80;99.90;;;;;;5034791;28;21009;-62
2024/03/23 11:02:05;;;;;;;5.20;3.40;;;12.00;99.90;;;;;;5038880;28;21108;-61
2024/03/23 11:04:34;;;;;;;4.90;2.33;;;11.90;99.90;;;;;;5038298;28;20934;-62
2024/03/23 11:07:24;;;;;;;2.40;0.97;;;11.40;99.90;;;;;;5038877;28;20432;-61
2024/03/23 11:10:00;;;;;;;1.67;0.60;;;10.70;99.90;;;;;;5039330;28;20999;-61
2024/03/23 11:12:26;;;;;;;1.93;0.63;;;10.00;99.90;;;;;;5038795;28;20417;-62
2024/03/23 11:15:01;;;;;;;1.13;0.63;;;9.50;99.90;;;;;;5039285;28;20432;-61
2024/03/23 11:17:27;;;;;;;2.03;0.60;;;8.80;99.90;;;;;;5038449;28;20428;-61
2024/03/23 11:20:03;;;;;;;2.43;0.80;;;8.40;99.90;;;;;;5071419;28;20472;-61
2024/03/23 11:22:39;;;;;;;2.10;0.57;;;8.30;99.90;;;;;;5038087;28;21228;-62
2024/03/23 11:25:25;;;;;;;2.43;1.10;;;8.30;99.90;;;;;;5038487;28;20443;-62
2024/03/23 11:27:59;;;;;;;1.37;1.03;;;8.20;99.90;;;;;;5038763;28;20515;-62
2024/03/23 11:30:26;;;;;;;2.10;0.80;;;8.30;99.90;;;;;;5038902;28;20463;-62
2024/03/23 11:32:56;;;;;;;1.63;1.10;;;8.70;99.90;;;;;;5038998;28;20774;-62
2024/03/23 11:35:33;;;;;;;2.13;1.00;;;9.10;99.90;;;;;;5038445;28;20507;-62
2024/03/23 11:38:14;;;;;;;1.73;0.90;;;9.50;99.90;;;;;;5038755;28;20440;-62
2024/03/23 11:40:53;;;;;;;2.20;1.30;;;9.70;99.90;;;;;;5038907;28;20428;-62
2024/03/23 11:43:21;;;;;;;2.50;1.57;;;10.00;99.90;;;;;;5037702;28;20520;-62
2024/03/23 11:45:52;;;;;;;2.07;1.33;;;10.20;99.90;;;;;;5038263;28;20524;-62
2024/03/23 11:48:20;;;;;;;3.17;1.20;;;10.30;99.90;;;;;;5037618;28;20444;-62
2024/03/23 11:51:00;;;;;;;3.23;1.57;;;10.40;99.90;;;;;;5038438;28;20434;-62
2024/03/23 11:53:28;;;;;;;4.40;2.50;;;10.60;99.90;;;;;;5038185;28;20424;-62
2024/03/23 11:55:59;;;;;;;2.93;1.67;;;10.70;99.90;;;;;;5039249;28;20467;-62
2024/03/23 11:58:26;;;;;;;3.37;2.03;;;10.90;99.90;;;;;;5037926;28;20459;-62
2024/03/23 12:01:05;;;;;;;4.07;2.37;;;11.10;99.90;;;;;;5038642;28;20962;-62
2024/03/23 12:03:35;;;;;;;5.67;2.13;;;10.80;99.90;;;;;;5037728;28;20505;-62
2024/03/23 12:06:03;;;;;;;6.57;1.67;;;10.90;99.90;;;;;;5037518;28;20432;-62
2024/03/23 12:08:31;;;;;;;3.57;2.20;;;11.00;99.90;;;;;;5037261;28;20465;-62
2024/03/23 12:11:17;;;;;;;6.53;2.40;;;11.20;99.90;;;;;;5037653;28;20523;-62
2024/03/23 12:13:45;;;;;;;5.27;2.53;;;11.30;99.90;;;;;;5037172;28;20428;-62
2024/03/23 12:16:11;;;;;;;3.97;3.07;;;11.50;99.90;;;;;;5037244;28;20433;-62
2024/03/23 12:18:40;;;;;;;3.77;2.63;;;11.50;99.90;;;;;;5036315;28;20428;-63
2024/03/23 12:21:06;;;;;;;4.07;2.30;;;11.50;99.90;;;;;;5036469;28;20416;-62
2024/03/23 12:23:32;;;;;;;1.83;1.67;;;11.30;99.90;;;;;;5035635;28;20436;-62
2024/03/23 12:25:58;;;;;;;7.97;6.17;;;11.10;99.90;;;;;;5036356;28;20941;-62
2024/03/23 12:28:23;;;;;;;3.10;2.33;;;10.80;99.90;;;;;;5035603;28;20464;-62
2024/03/23 12:30:49;;;;;;;6.93;2.77;;;10.60;99.90;;;;;;5036320;28;20215;-62
2024/03/23 12:33:15;;;;;;;2.10;1.87;;;10.40;99.90;;;;;;5067104;28;20209;-62
2024/03/23 12:35:40;;;;;;;4.07;1.73;;;10.00;99.90;;;;;;5037103;28;20190;-62
2024/03/23 12:38:07;;;;;;;2.10;1.50;;;9.90;99.90;;;;;;5036011;28;20594;-61
2024/03/23 12:40:32;;;;;;;3.67;1.60;;;9.80;99.90;;;;;;5034576;28;20667;-61
2024/03/23 12:42:58;;;;;;;1.40;1.00;;;9.80;99.90;;;;;;5036447;28;20425;-62
2024/03/23 12:45:24;;;;;;;3.23;1.30;;;9.80;99.90;;;;;;5035589;28;20186;-62
2024/03/23 12:47:52;;;;;;;1.53;1.43;;;9.60;99.90;;;;;;5035888;28;20189;-62